Time;durP1;ratioP1;P1;durP2;ratioP2;P2;SDS_P1;SDS_P2;PMS_P1;PMS_P2;Temp;Humidity;BMP_temperature;BMP_pressure;BME280_temperature;BME280_humidity;BME280_pressure;Samples;Min_cycle;Max_cycle;Signal;HPM_P1;HPM_P2
2022/01/29 00:02:19;;;;;;;58.10;24.95;;;;;;;;;;6181093;23;20067;-94
2022/01/29 00:04:50;;;;;;;65.65;26.90;;;;;;;;;;6174250;23;20008;-93
2022/01/29 02:18:31;;;;;;;151.40;35.20;;;;;;;;;;6156667;23;20065;-95
2022/01/29 02:44:18;;;;;;;118.63;36.33;;;;;;;;;;6163871;23;20947;-96
2022/01/29 03:45:25;;;;;;;100.38;31.17;;;;;;;;;;6175182;22;20138;-94
2022/01/29 03:48:00;;;;;;;107.85;28.73;;;;;;;;;;6173453;23;20017;-94
2022/01/29 03:56:05;;;;;;;60.97;20.80;;;;;;;;;;6184384;23;20032;-93
2022/01/29 04:26:11;;;;;;;161.57;33.80;;;;;;;;;;6176481;23;20087;-94
2022/01/29 04:34:33;;;;;;;77.45;23.58;;;;;;;;;;6195917;23;20032;-95
2022/01/29 05:14:09;;;;;;;115.05;34.58;;;;;;;;;;6187802;23;20017;-94
2022/01/29 05:17:16;;;;;;;189.07;47.45;;;;;;;;;;6180969;23;20017;-94
2022/01/29 05:27:40;;;;;;;259.25;56.03;;;;;;;;;;6198694;23;20008;-94
2022/01/29 05:30:06;;;;;;;168.40;46.15;;;;;;;;;;6194160;23;19997;-94
2022/01/29 05:32:33;;;;;;;174.50;47.03;;;;;;;;;;6195884;23;20033;-94
2022/01/29 05:34:58;;;;;;;267.05;58.45;;;;;;;;;;6191932;23;20001;-94
2022/01/29 05:37:24;;;;;;;236.23;50.53;;;;;;;;;;6192330;23;20008;-94
2022/01/29 05:39:49;;;;;;;224.73;52.92;;;;;;;;;;6194345;23;20009;-94
2022/01/29 05:42:15;;;;;;;191.57;49.08;;;;;;;;;;6192965;23;20009;-94
2022/01/29 05:44:40;;;;;;;281.05;59.63;;;;;;;;;;6194986;23;20020;-94
2022/01/29 05:47:06;;;;;;;189.32;49.70;;;;;;;;;;6195799;23;20005;-94
2022/01/29 05:49:32;;;;;;;188.25;47.28;;;;;;;;;;6194751;23;20063;-94
2022/01/29 05:54:53;;;;;;;195.35;48.88;;;;;;;;;;6196689;22;20025;-94
2022/01/29 05:57:22;;;;;;;327.75;69.35;;;;;;;;;;6168881;23;20052;-95
2022/01/29 05:59:50;;;;;;;284.35;59.72;;;;;;;;;;6193764;23;19997;-94
2022/01/29 06:02:18;;;;;;;301.13;62.78;;;;;;;;;;6193083;23;20007;-95
2022/01/29 06:04:47;;;;;;;199.32;46.55;;;;;;;;;;6191879;23;20112;-94
2022/01/29 06:13:12;;;;;;;280.00;65.22;;;;;;;;;;6191985;22;20022;-95
2022/01/29 06:21:33;;;;;;;193.75;44.83;;;;;;;;;;6193542;23;20354;-95
2022/01/29 06:24:05;;;;;;;200.10;49.45;;;;;;;;;;6164197;23;20047;-94
2022/01/29 06:26:38;;;;;;;271.00;59.63;;;;;;;;;;6182103;23;20029;-94
2022/01/29 06:29:10;;;;;;;232.30;53.78;;;;;;;;;;6196907;23;19997;-94
2022/01/29 06:31:41;;;;;;;267.20;58.42;;;;;;;;;;6194513;23;20005;-94
2022/01/29 06:36:38;;;;;;;;;;;;;;;;;;6196083;23;20027;-94
2022/01/29 06:39:09;;;;;;;291.60;57.53;;;;;;;;;;6165131;23;19900;-94
2022/01/29 06:41:46;;;;;;;231.02;52.15;;;;;;;;;;6165702;23;20009;-94
2022/01/29 06:44:16;;;;;;;286.70;57.30;;;;;;;;;;6166311;23;20020;-94
2022/01/29 06:49:25;;;;;;;227.65;50.88;;;;;;;;;;6185391;23;20382;-94
2022/01/29 06:52:02;;;;;;;186.57;47.47;;;;;;;;;;6170301;23;20100;-94
2022/01/29 06:57:13;;;;;;;219.15;49.40;;;;;;;;;;6193073;22;20089;-94
2022/01/29 07:02:50;;;;;;;202.98;47.55;;;;;;;;;;6197418;23;20035;-94
2022/01/29 07:05:18;;;;;;;227.23;51.20;;;;;;;;;;6169297;23;20103;-94
2022/01/29 07:07:47;;;;;;;244.73;51.55;;;;;;;;;;6191607;23;20045;-95
2022/01/29 07:10:17;;;;;;;238.90;55.65;;;;;;;;;;6169117;23;20484;-95
2022/01/29 07:12:43;;;;;;;199.23;49.55;;;;;;;;;;6169587;23;20004;-94
2022/01/29 07:15:12;;;;;;;238.65;49.45;;;;;;;;;;6168616;23;20004;-94
2022/01/29 07:17:44;;;;;;;211.68;48.15;;;;;;;;;;6168091;23;20032;-95
2022/01/29 07:20:19;;;;;;;286.73;59.72;;;;;;;;;;6197926;23;20005;-95
2022/01/29 07:22:53;;;;;;;270.20;55.38;;;;;;;;;;6160940;22;20029;-94
2022/01/29 07:25:18;;;;;;;194.63;45.10;;;;;;;;;;6139357;23;20021;-94
2022/01/29 07:27:44;;;;;;;170.07;39.83;;;;;;;;;;6134647;23;20001;-94
2022/01/29 07:30:10;;;;;;;221.25;49.33;;;;;;;;;;6159608;23;20001;-94
2022/01/29 07:32:42;;;;;;;195.65;46.05;;;;;;;;;;6134950;23;20005;-94
2022/01/29 07:35:10;;;;;;;203.18;47.95;;;;;;;;;;6135697;23;20013;-94
2022/01/29 07:37:44;;;;;;;194.20;46.22;;;;;;;;;;6138342;23;20030;-94
2022/01/29 07:40:16;;;;;;;249.45;53.15;;;;;;;;;;6162457;23;20009;-94
2022/01/29 07:42:45;;;;;;;162.40;42.30;;;;;;;;;;6136697;23;20056;-94
2022/01/29 07:45:24;;;;;;;164.18;39.25;;;;;;;;;;6161580;23;20013;-95
2022/01/29 07:47:51;;;;;;;205.50;47.80;;;;;;;;;;6136376;23;20003;-95
2022/01/29 07:50:19;;;;;;;199.57;44.95;;;;;;;;;;6136596;23;20434;-94
2022/01/29 07:52:45;;;;;;;183.63;47.03;;;;;;;;;;6160955;23;20040;-94
2022/01/29 07:55:11;;;;;;;167.52;40.20;;;;;;;;;;6134147;23;19993;-94
2022/01/29 07:57:38;;;;;;;156.55;39.30;;;;;;;;;;6133968;23;20009;-94
2022/01/29 08:00:04;;;;;;;239.70;50.15;;;;;;;;;;6135894;23;20006;-94
2022/01/29 08:02:31;;;;;;;146.18;36.30;;;;;;;;;;6152430;23;20427;-94
2022/01/29 08:04:57;;;;;;;202.52;46.15;;;;;;;;;;6191255;23;20020;-94
2022/01/29 08:07:23;;;;;;;186.50;41.50;;;;;;;;;;6193951;23;20013;-94
2022/01/29 08:09:50;;;;;;;179.38;43.88;;;;;;;;;;6193396;23;20008;-94
2022/01/29 08:12:16;;;;;;;181.45;41.20;;;;;;;;;;6194125;23;20009;-94
2022/01/29 08:14:43;;;;;;;119.78;32.72;;;;;;;;;;6192394;23;20085;-94
2022/01/29 08:19:38;;;;;;;169.40;39.90;;;;;;;;;;6196159;23;20520;-94
2022/01/29 08:22:04;;;;;;;176.23;40.38;;;;;;;;;;6195513;23;20001;-94
2022/01/29 08:24:30;;;;;;;169.00;38.13;;;;;;;;;;6191773;23;20028;-94
2022/01/29 08:26:56;;;;;;;163.07;37.40;;;;;;;;;;6196049;23;20001;-94
2022/01/29 08:29:22;;;;;;;176.38;38.08;;;;;;;;;;6193062;23;19997;-94
2022/01/29 08:31:52;;;;;;;103.50;25.77;;;;;;;;;;6196139;23;20008;-94
2022/01/29 08:34:24;;;;;;;164.27;35.88;;;;;;;;;;6173161;23;20156;-94
2022/01/29 08:36:51;;;;;;;121.07;32.53;;;;;;;;;;6195291;23;20025;-94
2022/01/29 08:39:17;;;;;;;135.35;31.05;;;;;;;;;;6198234;23;19993;-94
2022/01/29 08:41:42;;;;;;;154.25;34.92;;;;;;;;;;6190674;23;20445;-93
2022/01/29 08:44:07;;;;;;;176.05;37.08;;;;;;;;;;6185468;23;20013;-93
2022/01/29 08:46:39;;;;;;;152.45;34.83;;;;;;;;;;6185801;23;20088;-93
2022/01/29 08:49:15;;;;;;;185.18;37.63;;;;;;;;;;6183571;23;20011;-94
2022/01/29 08:51:41;;;;;;;114.05;27.80;;;;;;;;;;6184106;23;20408;-93
2022/01/29 08:54:06;;;;;;;136.90;30.20;;;;;;;;;;6183974;23;20001;-93
2022/01/29 08:56:31;;;;;;;110.78;27.10;;;;;;;;;;6183258;23;20005;-93
2022/01/29 08:58:56;;;;;;;114.95;27.30;;;;;;;;;;6161849;23;20008;-94
2022/01/29 09:01:22;;;;;;;135.90;29.92;;;;;;;;;;6158841;23;20000;-93
2022/01/29 09:03:47;;;;;;;108.75;23.38;;;;;;;;;;6183524;23;20071;-93
2022/01/29 09:06:13;;;;;;;116.25;24.10;;;;;;;;;;6185780;23;20047;-93
2022/01/29 09:08:39;;;;;;;101.50;21.55;;;;;;;;;;6183677;23;19997;-93
2022/01/29 09:11:05;;;;;;;113.55;27.75;;;;;;;;;;6184659;23;20011;-93
2022/01/29 09:13:30;;;;;;;134.48;25.33;;;;;;;;;;6182655;23;20757;-93
2022/01/29 09:15:56;;;;;;;115.95;25.10;;;;;;;;;;6183789;23;20084;-93
2022/01/29 09:18:21;;;;;;;98.07;22.77;;;;;;;;;;6184060;23;20055;-93
2022/01/29 09:20:46;;;;;;;116.13;22.63;;;;;;;;;;6181131;23;20005;-93
2022/01/29 09:23:12;;;;;;;100.97;18.73;;;;;;;;;;6180762;23;20001;-92
2022/01/29 09:25:38;;;;;;;128.35;24.48;;;;;;;;;;6181201;23;20012;-93
2022/01/29 09:28:04;;;;;;;111.88;22.55;;;;;;;;;;6183405;23;19997;-93
2022/01/29 09:30:29;;;;;;;96.63;21.55;;;;;;;;;;6182941;23;20075;-92
2022/01/29 09:32:54;;;;;;;109.47;21.92;;;;;;;;;;6183859;23;20028;-93
2022/01/29 09:35:20;;;;;;;89.30;19.55;;;;;;;;;;6183748;23;20017;-93
2022/01/29 09:37:45;;;;;;;83.15;19.20;;;;;;;;;;6156717;23;20108;-92
2022/01/29 09:40:11;;;;;;;96.88;20.92;;;;;;;;;;6156328;23;20074;-92
2022/01/29 09:42:36;;;;;;;106.10;21.00;;;;;;;;;;6183531;23;20083;-92
2022/01/29 09:45:02;;;;;;;85.38;19.35;;;;;;;;;;6182492;23;20005;-92
2022/01/29 09:47:27;;;;;;;112.18;21.15;;;;;;;;;;6182637;23;20028;-93
2022/01/29 09:49:53;;;;;;;110.70;22.27;;;;;;;;;;6181286;23;20075;-92
2022/01/29 09:52:18;;;;;;;84.10;17.75;;;;;;;;;;6156413;23;20009;-93
2022/01/29 09:54:46;;;;;;;89.80;21.05;;;;;;;;;;6181089;23;20051;-93
2022/01/29 09:57:11;;;;;;;78.65;18.65;;;;;;;;;;6181109;23;20028;-93
2022/01/29 09:59:36;;;;;;;107.03;20.15;;;;;;;;;;6182246;23;20740;-93
2022/01/29 10:02:01;;;;;;;83.85;18.48;;;;;;;;;;6183692;23;20609;-93
2022/01/29 10:04:29;;;;;;;102.53;20.15;;;;;;;;;;6186152;23;20067;-93
2022/01/29 10:07:15;;;;;;;89.97;19.75;;;;;;;;;;6184030;23;20492;-94
2022/01/29 10:09:40;;;;;;;85.40;16.58;;;;;;;;;;6183344;23;20047;-93
2022/01/29 10:12:15;;;;;;;76.72;15.85;;;;;;;;;;6185461;23;19997;-94
2022/01/29 10:14:50;;;;;;;87.35;18.35;;;;;;;;;;6184299;23;20068;-93
2022/01/29 10:17:34;;;;;;;72.38;14.00;;;;;;;;;;6160210;23;20135;-93
2022/01/29 10:20:13;;;;;;;74.65;16.38;;;;;;;;;;6185966;23;20425;-93
2022/01/29 10:22:39;;;;;;;73.53;15.60;;;;;;;;;;6185060;23;20016;-93
2022/01/29 10:25:10;;;;;;;88.10;16.98;;;;;;;;;;6185006;23;20004;-93
2022/01/29 10:27:36;;;;;;;91.93;17.88;;;;;;;;;;6186978;23;19997;-93
2022/01/29 10:30:02;;;;;;;109.25;17.33;;;;;;;;;;6184512;23;20012;-93
2022/01/29 10:32:28;;;;;;;80.22;15.55;;;;;;;;;;6185289;23;20000;-93
2022/01/29 10:34:55;;;;;;;83.95;17.35;;;;;;;;;;6187675;23;20001;-93
2022/01/29 10:37:21;;;;;;;61.42;12.85;;;;;;;;;;6187141;23;20028;-93
2022/01/29 10:39:48;;;;;;;86.72;17.90;;;;;;;;;;6185153;23;20500;-93
2022/01/29 10:42:22;;;;;;;68.72;16.42;;;;;;;;;;6187021;23;20001;-93
2022/01/29 10:44:48;;;;;;;95.43;18.17;;;;;;;;;;6184709;23;20016;-93
2022/01/29 10:47:14;;;;;;;72.97;13.18;;;;;;;;;;6186010;23;20005;-93
2022/01/29 10:49:48;;;;;;;70.35;15.63;;;;;;;;;;6185147;23;20012;-93
2022/01/29 10:52:14;;;;;;;69.57;14.77;;;;;;;;;;6185834;23;19997;-94
2022/01/29 10:54:40;;;;;;;62.17;11.02;;;;;;;;;;6184962;23;20059;-93
2022/01/29 10:57:06;;;;;;;72.65;13.30;;;;;;;;;;6185331;23;20004;-93
2022/01/29 10:59:36;;;;;;;66.25;13.25;;;;;;;;;;6160925;23;19997;-94
2022/01/29 11:02:07;;;;;;;63.80;14.48;;;;;;;;;;6187034;23;20004;-93
2022/01/29 11:04:33;;;;;;;53.72;13.00;;;;;;;;;;6186161;23;20013;-94
2022/01/29 11:07:02;;;;;;;73.35;13.63;;;;;;;;;;6186300;23;19997;-93
2022/01/29 11:09:28;;;;;;;56.03;12.02;;;;;;;;;;6188193;23;20028;-94
2022/01/29 11:11:56;;;;;;;72.70;13.90;;;;;;;;;;6188484;23;20078;-94
2022/01/29 11:14:22;;;;;;;64.32;11.30;;;;;;;;;;6187610;23;20004;-93
2022/01/29 11:16:48;;;;;;;62.33;13.93;;;;;;;;;;6192704;23;20085;-93
2022/01/29 11:19:16;;;;;;;52.42;12.00;;;;;;;;;;6191550;23;20036;-94
2022/01/29 11:21:43;;;;;;;65.28;12.93;;;;;;;;;;6193476;23;20001;-94
2022/01/29 11:24:10;;;;;;;71.65;14.18;;;;;;;;;;6191980;23;20410;-94
2022/01/29 11:26:36;;;;;;;63.17;12.18;;;;;;;;;;6192684;23;20007;-94
2022/01/29 11:29:23;;;;;;;63.28;13.68;;;;;;;;;;6190758;23;20012;-94
2022/01/29 11:31:49;;;;;;;60.58;13.20;;;;;;;;;;6194415;23;20031;-94
2022/01/29 11:34:14;;;;;;;70.47;14.60;;;;;;;;;;6192040;23;19997;-94
2022/01/29 11:36:49;;;;;;;62.67;10.98;;;;;;;;;;6166812;23;20104;-94
2022/01/29 11:39:33;;;;;;;56.50;11.75;;;;;;;;;;6167819;23;20445;-94
2022/01/29 11:42:11;;;;;;;52.72;11.40;;;;;;;;;;6192605;23;20013;-94
2022/01/29 11:44:38;;;;;;;69.32;11.07;;;;;;;;;;6166608;23;20020;-94
2022/01/29 11:47:29;;;;;;;68.63;13.80;;;;;;;;;;6192311;23;20708;-94
2022/01/29 11:50:13;;;;;;;50.03;10.70;;;;;;;;;;6146168;23;20071;-93
2022/01/29 11:52:58;;;;;;;56.72;10.65;;;;;;;;;;6162047;23;20063;-93
2022/01/29 11:55:35;;;;;;;45.30;9.07;;;;;;;;;;6187313;23;20315;-94
2022/01/29 11:58:12;;;;;;;63.50;11.25;;;;;;;;;;6187237;23;20430;-93
2022/01/29 12:00:38;;;;;;;76.60;10.77;;;;;;;;;;6162716;23;20029;-93
2022/01/29 12:16:42;;;;;;;55.83;9.25;;;;;;;;;;6195441;23;20021;-94
2022/01/29 12:19:27;;;;;;;64.97;10.82;;;;;;;;;;6162836;23;20012;-93
2022/01/29 12:21:53;;;;;;;61.08;11.55;;;;;;;;;;6157119;23;20327;-93
2022/01/29 12:24:19;;;;;;;58.05;9.77;;;;;;;;;;6157567;23;20017;-93
2022/01/29 12:26:52;;;;;;;60.30;11.50;;;;;;;;;;6157746;23;20004;-93
2022/01/29 12:29:17;;;;;;;52.00;10.27;;;;;;;;;;6157383;23;20009;-93
2022/01/29 12:31:53;;;;;;;53.38;9.80;;;;;;;;;;6157389;23;20019;-93
2022/01/29 12:34:20;;;;;;;46.53;8.60;;;;;;;;;;6158716;23;20775;-93
2022/01/29 12:36:45;;;;;;;58.75;9.75;;;;;;;;;;6157543;23;20001;-93
2022/01/29 12:39:20;;;;;;;66.10;12.18;;;;;;;;;;6157029;23;20040;-92
2022/01/29 12:41:46;;;;;;;53.83;9.60;;;;;;;;;;6155431;23;20422;-93
2022/01/29 12:44:18;;;;;;;57.78;10.48;;;;;;;;;;6160586;23;20037;-93
2022/01/29 12:46:45;;;;;;;63.65;10.10;;;;;;;;;;6156974;23;20006;-93
2022/01/29 12:49:11;;;;;;;56.25;9.50;;;;;;;;;;6156447;23;19997;-93
2022/01/29 12:51:56;;;;;;;58.05;11.18;;;;;;;;;;6156436;23;20002;-94
2022/01/29 12:54:23;;;;;;;57.80;10.05;;;;;;;;;;6154461;23;20006;-93
2022/01/29 12:56:48;;;;;;;59.17;10.98;;;;;;;;;;6157765;23;20001;-94
2022/01/29 12:59:14;;;;;;;52.00;9.75;;;;;;;;;;6156919;23;20004;-93
2022/01/29 13:01:40;;;;;;;54.03;10.75;;;;;;;;;;6154214;23;20025;-93
2022/01/29 13:04:07;;;;;;;66.30;10.45;;;;;;;;;;6155394;23;20009;-93
2022/01/29 13:06:33;;;;;;;69.47;10.25;;;;;;;;;;6153285;23;20026;-93
2022/01/29 13:09:18;;;;;;;59.35;10.57;;;;;;;;;;6154997;23;20048;-93
2022/01/29 13:11:44;;;;;;;43.72;9.20;;;;;;;;;;6152766;23;20023;-93
2022/01/29 13:14:10;;;;;;;60.97;9.23;;;;;;;;;;6155339;23;20009;-93
2022/01/29 13:16:35;;;;;;;65.13;10.52;;;;;;;;;;6158508;23;20028;-93
2022/01/29 13:19:01;;;;;;;59.83;10.40;;;;;;;;;;6155885;23;20006;-93
2022/01/29 13:21:27;;;;;;;65.22;10.05;;;;;;;;;;6155781;23;20009;-93
2022/01/29 13:23:55;;;;;;;49.97;9.93;;;;;;;;;;6155704;23;20014;-92
2022/01/29 13:26:28;;;;;;;70.13;10.95;;;;;;;;;;6156885;23;20001;-93
2022/01/29 13:28:57;;;;;;;70.97;10.65;;;;;;;;;;6158103;23;20658;-93
2022/01/29 13:31:28;;;;;;;70.90;11.23;;;;;;;;;;6158250;23;20037;-94
2022/01/29 13:34:04;;;;;;;53.30;9.18;;;;;;;;;;6190150;22;20025;-93
2022/01/29 13:36:30;;;;;;;62.50;12.27;;;;;;;;;;6192115;23;20285;-93
2022/01/29 13:39:02;;;;;;;56.10;9.25;;;;;;;;;;6188881;23;20326;-93
2022/01/29 13:41:28;;;;;;;60.88;9.43;;;;;;;;;;6187337;23;20009;-93
2022/01/29 13:43:54;;;;;;;40.60;9.55;;;;;;;;;;6187416;23;20020;-93
2022/01/29 13:46:21;;;;;;;55.63;9.38;;;;;;;;;;6189299;23;20027;-94
2022/01/29 14:14:45;;;;;;;61.53;11.55;;;;;;;;;;6172254;23;20397;-93
2022/01/29 14:17:11;;;;;;;56.50;9.00;;;;;;;;;;6184351;23;20388;-93
2022/01/29 14:19:37;;;;;;;56.97;10.20;;;;;;;;;;6185448;23;20005;-93
2022/01/29 14:22:03;;;;;;;53.50;9.27;;;;;;;;;;6184016;23;20076;-92
2022/01/29 14:24:29;;;;;;;62.53;11.75;;;;;;;;;;6183785;23;20040;-92
2022/01/29 14:26:55;;;;;;;73.53;9.63;;;;;;;;;;6183021;23;20051;-93
2022/01/29 14:29:21;;;;;;;61.97;11.30;;;;;;;;;;6185796;23;19993;-93
2022/01/29 14:31:46;;;;;;;55.63;10.55;;;;;;;;;;6183829;23;20020;-94
2022/01/29 14:34:11;;;;;;;57.88;10.45;;;;;;;;;;6184533;23;20012;-93
2022/01/29 14:36:37;;;;;;;53.22;9.70;;;;;;;;;;6160211;23;19997;-93
2022/01/29 14:39:03;;;;;;;63.55;11.90;;;;;;;;;;6185503;23;20349;-93
2022/01/29 14:41:29;;;;;;;65.18;10.20;;;;;;;;;;6191570;23;20097;-94
2022/01/29 14:46:26;;;;;;;53.50;9.63;;;;;;;;;;6158981;22;20052;-94
2022/01/29 15:38:05;;;;;;;84.05;13.43;;;;;;;;;;6174488;22;20001;-94
2022/01/29 17:32:59;;;;;;;67.57;12.55;;;;;;;;;;6149764;23;20053;-87
2022/01/29 17:35:25;;;;;;;68.28;10.43;;;;;;;;;;6179630;23;20012;-86
2022/01/29 17:37:53;;;;;;;76.15;13.18;;;;;;;;;;6179722;23;20000;-86
2022/01/29 17:40:19;;;;;;;83.47;15.70;;;;;;;;;;6153821;23;20342;-87
2022/01/29 17:42:44;;;;;;;70.93;12.70;;;;;;;;;;6180128;23;20007;-86
2022/01/29 17:45:09;;;;;;;71.25;13.73;;;;;;;;;;6179341;23;20023;-87
2022/01/29 17:47:34;;;;;;;86.03;14.75;;;;;;;;;;6178130;23;20004;-86
2022/01/29 17:50:00;;;;;;;84.90;15.03;;;;;;;;;;6177065;23;20481;-87
2022/01/29 17:52:25;;;;;;;72.82;13.65;;;;;;;;;;6177972;23;20329;-86
2022/01/29 17:54:52;;;;;;;64.17;13.40;;;;;;;;;;6177840;23;20449;-87
2022/01/29 17:57:17;;;;;;;72.20;13.95;;;;;;;;;;6177938;23;20088;-87
2022/01/29 17:59:42;;;;;;;86.10;17.05;;;;;;;;;;6179845;23;20430;-85
2022/01/29 18:02:08;;;;;;;85.72;16.52;;;;;;;;;;6179684;23;20446;-87
2022/01/29 18:04:36;;;;;;;77.13;16.27;;;;;;;;;;6179953;23;20008;-88
2022/01/29 18:07:01;;;;;;;87.57;16.90;;;;;;;;;;6180038;23;20011;-86
2022/01/29 18:09:26;;;;;;;75.72;15.63;;;;;;;;;;6153425;23;20004;-87
2022/01/29 18:11:51;;;;;;;71.75;14.27;;;;;;;;;;6180365;23;20007;-87
2022/01/29 18:14:17;;;;;;;80.28;15.70;;;;;;;;;;6181173;23;20080;-86
2022/01/29 18:16:42;;;;;;;85.35;14.68;;;;;;;;;;6178653;23;20333;-87
2022/01/29 18:19:08;;;;;;;88.68;14.52;;;;;;;;;;6179449;23;20029;-87
2022/01/29 18:21:33;;;;;;;81.57;16.00;;;;;;;;;;6182029;23;20485;-87
2022/01/29 18:23:58;;;;;;;85.43;17.17;;;;;;;;;;6182073;23;20044;-85
2022/01/29 18:26:24;;;;;;;90.60;16.02;;;;;;;;;;6181442;23;19997;-87
2022/01/29 18:28:51;;;;;;;91.07;14.63;;;;;;;;;;6183125;23;19993;-88
2022/01/29 18:31:16;;;;;;;83.82;18.52;;;;;;;;;;6183286;23;20020;-86
2022/01/29 18:33:41;;;;;;;88.43;17.30;;;;;;;;;;6152756;23;20408;-85
2022/01/29 18:36:06;;;;;;;91.57;15.98;;;;;;;;;;6177050;23;20001;-85
2022/01/29 18:38:32;;;;;;;79.88;14.30;;;;;;;;;;6152135;23;20008;-86
2022/01/29 18:40:57;;;;;;;68.72;12.88;;;;;;;;;;6179249;23;20001;-85
2022/01/29 18:43:27;;;;;;;57.73;13.03;;;;;;;;;;6152645;23;20017;-85
2022/01/29 18:45:53;;;;;;;68.85;13.02;;;;;;;;;;6177337;23;20244;-85
2022/01/29 18:48:18;;;;;;;61.90;12.10;;;;;;;;;;6179769;23;19999;-85
2022/01/29 18:50:44;;;;;;;65.40;13.02;;;;;;;;;;6153535;23;20104;-85
2022/01/29 18:53:09;;;;;;;74.05;12.52;;;;;;;;;;6180956;23;20079;-86
2022/01/29 18:55:36;;;;;;;72.50;13.05;;;;;;;;;;6153801;23;20020;-85
2022/01/29 18:58:01;;;;;;;82.20;13.73;;;;;;;;;;6178080;23;20028;-85
2022/01/29 19:00:26;;;;;;;63.40;11.82;;;;;;;;;;6179589;23;20514;-86
2022/01/29 19:02:52;;;;;;;68.93;13.98;;;;;;;;;;6180164;23;19997;-86
2022/01/29 19:05:17;;;;;;;69.45;12.57;;;;;;;;;;6179569;23;20009;-86
2022/01/29 19:07:43;;;;;;;63.20;10.77;;;;;;;;;;6181452;23;20005;-85
2022/01/29 19:10:12;;;;;;;73.65;13.52;;;;;;;;;;6178112;23;20139;-86
2022/01/29 19:12:37;;;;;;;69.00;12.52;;;;;;;;;;6177998;23;20027;-86
2022/01/29 19:15:03;;;;;;;69.82;12.88;;;;;;;;;;6153190;23;20004;-86
2022/01/29 19:17:28;;;;;;;58.33;10.88;;;;;;;;;;6180055;23;20001;-86
2022/01/29 19:22:24;;;;;;;59.90;9.90;;;;;;;;;;6172976;23;20068;-92
2022/01/29 19:24:50;;;;;;;63.17;12.40;;;;;;;;;;6156556;23;20484;-93
2022/01/29 19:27:15;;;;;;;60.63;10.93;;;;;;;;;;6181535;23;20001;-92
2022/01/29 19:29:40;;;;;;;63.40;10.40;;;;;;;;;;6181345;23;20001;-92
2022/01/29 19:32:06;;;;;;;61.13;11.73;;;;;;;;;;6181494;23;20442;-92
2022/01/29 19:34:31;;;;;;;58.40;9.45;;;;;;;;;;6183226;23;20050;-92
2022/01/29 19:36:57;;;;;;;57.53;11.10;;;;;;;;;;6182266;23;20008;-92
2022/01/29 20:16:16;;;;;;;71.45;13.25;;;;;;;;;;6182739;23;20067;-94
2022/01/29 20:18:43;;;;;;;73.45;12.35;;;;;;;;;;6158373;23;20047;-93
2022/01/29 20:21:13;;;;;;;76.40;11.18;;;;;;;;;;6183554;23;20063;-94
2022/01/29 20:23:44;;;;;;;59.58;10.63;;;;;;;;;;6175426;22;20029;-93
2022/01/29 20:26:10;;;;;;;78.68;11.25;;;;;;;;;;6157839;23;20036;-93
2022/01/29 20:28:37;;;;;;;67.88;11.10;;;;;;;;;;6155248;23;20740;-92
2022/01/29 20:31:03;;;;;;;59.17;11.95;;;;;;;;;;6155665;23;20444;-93
2022/01/29 20:33:28;;;;;;;60.85;12.60;;;;;;;;;;6156736;23;20009;-93
2022/01/29 20:35:54;;;;;;;71.07;12.68;;;;;;;;;;6156325;23;20032;-93
2022/01/29 20:38:19;;;;;;;71.25;11.48;;;;;;;;;;6156492;23;20080;-92
2022/01/29 20:40:47;;;;;;;73.70;12.13;;;;;;;;;;6156982;23;20005;-92
2022/01/29 20:43:13;;;;;;;62.40;12.15;;;;;;;;;;6156485;23;20447;-92
2022/01/29 20:45:39;;;;;;;54.92;9.45;;;;;;;;;;6157665;23;20100;-92
2022/01/29 20:48:04;;;;;;;60.75;11.85;;;;;;;;;;6156838;23;20036;-93
2022/01/29 20:50:30;;;;;;;64.47;11.52;;;;;;;;;;6158126;23;20833;-93
2022/01/29 20:52:56;;;;;;;68.82;11.48;;;;;;;;;;6156304;23;20005;-94
2022/01/29 20:55:26;;;;;;;53.90;9.90;;;;;;;;;;6156753;23;20432;-93
2022/01/29 20:57:53;;;;;;;;;;;;;;;;;;6157495;23;20004;-93
2022/01/29 21:00:20;;;;;;;64.18;10.55;;;;;;;;;;6157437;23;19959;-93
2022/01/29 21:02:46;;;;;;;63.80;10.90;;;;;;;;;;6159515;23;20008;-93
2022/01/29 21:07:40;;;;;;;66.65;11.57;;;;;;;;;;6208376;23;20024;-92
2022/01/29 21:10:06;;;;;;;61.22;9.95;;;;;;;;;;6183720;23;20005;-93
2022/01/29 21:12:32;;;;;;;55.13;11.02;;;;;;;;;;6184234;23;20000;-93
2022/01/29 21:14:58;;;;;;;65.03;10.48;;;;;;;;;;6185561;23;20005;-92
2022/01/29 21:17:24;;;;;;;58.80;9.98;;;;;;;;;;6184608;23;20029;-93
2022/01/29 21:19:50;;;;;;;66.63;11.88;;;;;;;;;;6183883;23;20059;-93
2022/01/29 21:22:15;;;;;;;66.55;10.45;;;;;;;;;;6183075;23;20031;-93
2022/01/29 21:24:44;;;;;;;52.58;9.48;;;;;;;;;;6181828;23;20016;-93
2022/01/29 21:29:39;;;;;;;42.08;9.63;;;;;;;;;;6180282;22;20055;-93
2022/01/29 21:32:06;;;;;;;63.45;10.52;;;;;;;;;;6181039;23;20036;-94
2022/01/29 21:42:14;;;;;;;63.17;11.02;;;;;;;;;;6178955;23;20040;-94
2022/01/29 21:45:06;;;;;;;85.63;15.98;;;;;;;;;;6128855;23;20095;-93
2022/01/29 21:47:45;;;;;;;71.38;12.50;;;;;;;;;;6175201;23;20032;-94
2022/01/29 21:55:46;;;;;;;79.38;15.43;;;;;;;;;;6162362;23;20032;-93
2022/01/29 21:58:11;;;;;;;68.10;11.73;;;;;;;;;;6185734;23;20009;-93
2022/01/29 22:00:36;;;;;;;64.25;11.95;;;;;;;;;;6185182;23;20029;-94
2022/01/29 22:03:02;;;;;;;56.27;9.80;;;;;;;;;;6160938;23;20028;-93
2022/01/29 22:05:27;;;;;;;42.30;10.32;;;;;;;;;;6186602;23;20260;-93
2022/01/29 22:07:53;;;;;;;64.38;9.57;;;;;;;;;;6189267;23;20080;-93
2022/01/29 22:10:18;;;;;;;54.38;10.57;;;;;;;;;;6187887;23;20487;-93
2022/01/29 22:12:44;;;;;;;56.95;10.57;;;;;;;;;;6189860;23;20430;-93
2022/01/29 22:15:09;;;;;;;70.65;10.75;;;;;;;;;;6186985;23;20001;-93
2022/01/29 22:17:35;;;;;;;56.65;10.13;;;;;;;;;;6162885;23;20414;-93
2022/01/29 22:20:04;;;;;;;60.10;10.68;;;;;;;;;;6195822;23;20001;-93
2022/01/29 22:22:30;;;;;;;59.72;9.50;;;;;;;;;;6192298;23;20000;-94
2022/01/29 22:24:56;;;;;;;71.93;10.50;;;;;;;;;;6190906;23;20377;-93
2022/01/29 22:27:23;;;;;;;60.75;10.45;;;;;;;;;;6191092;23;19997;-94
2022/01/29 22:29:50;;;;;;;51.22;10.88;;;;;;;;;;6187982;23;20031;-93
2022/01/29 22:32:16;;;;;;;58.03;11.50;;;;;;;;;;6188706;23;19997;-93
2022/01/29 22:34:41;;;;;;;49.60;10.73;;;;;;;;;;6188032;23;20003;-93
2022/01/29 22:37:06;;;;;;;54.35;12.75;;;;;;;;;;6187656;23;20340;-94
2022/01/29 22:39:33;;;;;;;59.10;10.85;;;;;;;;;;6193541;23;20024;-94
2022/01/29 22:42:01;;;;;;;51.55;10.32;;;;;;;;;;6207156;23;20040;-94
2022/01/29 22:44:27;;;;;;;57.45;10.85;;;;;;;;;;6200165;23;20020;-94
2022/01/29 22:46:52;;;;;;;65.22;11.02;;;;;;;;;;6197166;23;20002;-93
2022/01/29 22:49:17;;;;;;;61.08;11.07;;;;;;;;;;6202652;23;20008;-94
2022/01/29 22:51:46;;;;;;;66.93;13.48;;;;;;;;;;6200643;23;20001;-94
2022/01/29 22:54:11;;;;;;;59.95;12.48;;;;;;;;;;6194726;23;20001;-93
2022/01/29 22:56:37;;;;;;;58.88;9.93;;;;;;;;;;6197959;23;20023;-94
2022/01/29 22:59:04;;;;;;;52.53;8.23;;;;;;;;;;6189635;23;20005;-93
2022/01/29 23:01:29;;;;;;;49.50;8.60;;;;;;;;;;6193165;23;20079;-94
2022/01/29 23:03:55;;;;;;;55.97;9.57;;;;;;;;;;6196617;23;20013;-94
2022/01/29 23:06:23;;;;;;;53.78;8.93;;;;;;;;;;6191630;23;20426;-93
2022/01/29 23:08:51;;;;;;;59.45;10.57;;;;;;;;;;6203740;23;20007;-94
2022/01/29 23:11:29;;;;;;;52.33;9.48;;;;;;;;;;6200211;23;19997;-94
2022/01/29 23:14:01;;;;;;;51.15;8.63;;;;;;;;;;6165749;23;19999;-93
2022/01/29 23:19:26;;;;;;;58.53;10.07;;;;;;;;;;6199967;23;19924;-94
2022/01/29 23:22:03;;;;;;;47.60;8.50;;;;;;;;;;6198405;23;20017;-94
2022/01/29 23:24:33;;;;;;;55.10;9.65;;;;;;;;;;6192322;23;20036;-94
2022/01/29 23:26:59;;;;;;;68.15;12.40;;;;;;;;;;6190546;23;20389;-93
2022/01/29 23:32:06;;;;;;;66.68;12.18;;;;;;;;;;6200382;23;20040;-93
2022/01/29 23:37:54;;;;;;;59.78;12.18;;;;;;;;;;6188238;23;20092;-93
2022/01/29 23:40:02;;;;;;;56.90;10.25;;;;;;;;;;6171022;23;20001;-93
2022/01/29 23:42:51;;;;;;;54.17;10.48;;;;;;;;;;6185819;23;20440;-94
